YKZ weather

Buttonville Municipal Airport
Toronto, Ontario, Canada

Public forecast

Using degrees Celsius for public forecast. Weather courtesy of forecast.io.

METAR (pilot weather report)

Retrieved 2018/06/22 02:00 UTC (55 minutes ago):

CYKZ 220200Z 08003KT 070V130 15SM FEW250 17/06 A2995 RMK CI1 SLP144 DENSITY ALT 1000FT

TAF (pilot weather forecast)

Forecast is more than 12 hours old.

Retrieved 2018/06/21 00:42 UTC (1 day ago):

TAF CYKZ 212339Z 2200/2212 18005KT P6SM FEW150 FEW260 BECMG 2201/2203 05005KT RMK NXT FCST BY 220600Z